This is the latest recevied weather packets stored in our database for station/object KF4ERV-4. If no packets are shown the sender has not sent any weather packets the latest 10 day(s).
| Time | Temp. | Humidity | Pressure | Rain* | Wind** | Luminosity | Snow |
|---|---|---|---|---|---|---|---|
| 1777434882 | 16.67° C | 55% | 1014 hPa | 4.57 mm | - | - | - |
| 1777434814 | 16.67° C | 55% | 1014 hPa | 4.83 mm | - | - | - |
| 1777434574 | 16.67° C | 55% | 1014 hPa | 4.83 mm | - | - | - |
| 1777434524 | 16.67° C | 52% | 1013.9 hPa | 4.83 mm | - | - | - |
| 1777434276 | 16.67° C | 52% | 1013.9 hPa | 4.83 mm | - | - | - |
| 1777434233 | 16.67° C | 48% | 1013.8 hPa | 4.83 mm | - | - | - |
| 1777433979 | 16.67° C | 48% | 1013.8 hPa | 4.83 mm | - | - | - |
| 1777433944 | 16.67° C | 45% | 1014 hPa | 4.83 mm | - | - | - |
| 1777433853 | 16.67° C | 45% | 1014 hPa | 4.83 mm | - | - | - |
| 1777433851 | 16.67° C | 46% | 1014 hPa | 4.83 mm | - | - | - |
| 1777433683 | 16.67° C | 45% | 1014 hPa | 4.83 mm | - | - | - |
| 1777433654 | 16.67° C | 46% | 1014 hPa | 4.83 mm | - | - | - |
| 1777433374 | 16.67° C | 46% | 1014 hPa | 4.83 mm | - | - | - |
| 1777433253 | 17.22° C | 50% | 1014 hPa | 4.57 mm | - | - | - |
| 1777433074 | 17.22° C | 50% | 1014 hPa | 4.57 mm | - | - | - |
| 1777432781 | 17.22° C | 58% | 1014 hPa | 4.57 mm | - | - | - |
| 1777432511 | 17.78° C | 69% | 1014 hPa | 4.57 mm | - | - | - |
| 1777432473 | 17.78° C | 69% | 1014 hPa | 4.57 mm | - | - | - |
| 1777432175 | 17.78° C | 70% | 1013.9 hPa | 3.81 mm | - | - | - |
| 1777431913 | 17.78° C | 50% | 1013.1 hPa | 2.54 mm | - | - | - |
| 1777431879 | 17.78° C | 50% | 1013.1 hPa | 2.54 mm | - | - | - |
| 1777431623 | 18.89° C | 19% | 1013.9 hPa | 1.02 mm | - | - | - |
| 1777431581 | 18.89° C | 19% | 1013.9 hPa | 1.02 mm | - | - | - |
| 1777431432 | 20° C | 28% | 1013.8 hPa | 0 mm | - | - | - |
| 1777431334 | 20° C | 20% | 1013.2 hPa | 0.25 mm | - | - | - |
* Rain latest hour (hover to see other rain measurements)
** Current wind speed in m/s (hover to see current wind gust speed)